sensor_id;sensor_type;location;lat;lon;timestamp;pressure;altitude;pressure_sealevel;temperature
31528;BMP280;10206;48.012;10.030;2023-03-01T00:01:31;95205.03;;;3.08
31528;BMP280;10206;48.012;10.030;2023-03-01T00:03:58;95199.88;;;2.74
31528;BMP280;10206;48.012;10.030;2023-03-01T00:06:25;95200.09;;;2.77
31528;BMP280;10206;48.012;10.030;2023-03-01T00:08:52;95197.56;;;3.25
31528;BMP280;10206;48.012;10.030;2023-03-01T00:11:23;95199.84;;;3.15
31528;BMP280;10206;48.012;10.030;2023-03-01T00:13:52;95189.41;;;3.01
31528;BMP280;10206;48.012;10.030;2023-03-01T00:16:21;95195.00;;;3.38
31528;BMP280;10206;48.012;10.030;2023-03-01T00:18:48;95192.31;;;3.08
31528;BMP280;10206;48.012;10.030;2023-03-01T00:21:14;95196.00;;;3.05
31528;BMP280;10206;48.012;10.030;2023-03-01T00:23:41;95194.19;;;3.19
31528;BMP280;10206;48.012;10.030;2023-03-01T00:26:09;95181.41;;;2.90
31528;BMP280;10206;48.012;10.030;2023-03-01T00:28:36;95182.47;;;3.11
31528;BMP280;10206;48.012;10.030;2023-03-01T00:31:14;95181.25;;;3.12
31528;BMP280;10206;48.012;10.030;2023-03-01T00:33:41;95176.38;;;3.40
31528;BMP280;10206;48.012;10.030;2023-03-01T00:36:08;95179.25;;;3.18
31528;BMP280;10206;48.012;10.030;2023-03-01T00:38:39;95176.09;;;3.14
31528;BMP280;10206;48.012;10.030;2023-03-01T00:41:06;95178.47;;;3.23
31528;BMP280;10206;48.012;10.030;2023-03-01T00:43:32;95178.50;;;3.47
31528;BMP280;10206;48.012;10.030;2023-03-01T00:46:07;95169.25;;;2.78
31528;BMP280;10206;48.012;10.030;2023-03-01T00:48:34;95168.09;;;3.33
31528;BMP280;10206;48.012;10.030;2023-03-01T00:51:07;95176.44;;;2.99
31528;BMP280;10206;48.012;10.030;2023-03-01T00:53:34;95175.78;;;3.23
31528;BMP280;10206;48.012;10.030;2023-03-01T00:56:00;95168.19;;;2.92
31528;BMP280;10206;48.012;10.030;2023-03-01T00:58:26;95161.03;;;3.24
31528;BMP280;10206;48.012;10.030;2023-03-01T01:00:52;95158.50;;;3.37
31528;BMP280;10206;48.012;10.030;2023-03-01T01:03:19;95155.06;;;3.37
31528;BMP280;10206;48.012;10.030;2023-03-01T01:05:45;95148.19;;;3.41
31528;BMP280;10206;48.012;10.030;2023-03-01T01:08:12;95147.19;;;3.44
31528;BMP280;10206;48.012;10.030;2023-03-01T01:10:38;95138.63;;;3.40
31528;BMP280;10206;48.012;10.030;2023-03-01T01:13:04;95139.56;;;3.43
31528;BMP280;10206;48.012;10.030;2023-03-01T01:15:34;95137.44;;;3.60
31528;BMP280;10206;48.012;10.030;2023-03-01T01:18:01;95136.66;;;3.41
31528;BMP280;10206;48.012;10.030;2023-03-01T01:20:27;95132.66;;;3.47
31528;BMP280;10206;48.012;10.030;2023-03-01T01:22:53;95128.56;;;3.41
31528;BMP280;10206;48.012;10.030;2023-03-01T01:25:19;95121.53;;;3.56
31528;BMP280;10206;48.012;10.030;2023-03-01T01:27:46;95121.97;;;3.36
31528;BMP280;10206;48.012;10.030;2023-03-01T01:30:12;95111.94;;;3.12
31528;BMP280;10206;48.012;10.030;2023-03-01T01:32:38;95118.69;;;3.49
31528;BMP280;10206;48.012;10.030;2023-03-01T01:35:05;95109.41;;;3.20
31528;BMP280;10206;48.012;10.030;2023-03-01T01:37:31;95105.25;;;3.43
31528;BMP280;10206;48.012;10.030;2023-03-01T01:40:01;95106.88;;;3.52
31528;BMP280;10206;48.012;10.030;2023-03-01T01:42:30;95100.75;;;3.51
31528;BMP280;10206;48.012;10.030;2023-03-01T01:47:51;95100.94;;;3.35
31528;BMP280;10206;48.012;10.030;2023-03-01T01:50:19;95092.31;;;3.42
31528;BMP280;10206;48.012;10.030;2023-03-01T01:52:45;95090.09;;;3.40
31528;BMP280;10206;48.012;10.030;2023-03-01T01:55:20;95091.09;;;3.37
31528;BMP280;10206;48.012;10.030;2023-03-01T01:57:56;95089.94;;;3.33
31528;BMP280;10206;48.012;10.030;2023-03-01T02:00:26;95090.44;;;3.31
31528;BMP280;10206;48.012;10.030;2023-03-01T02:03:05;95084.50;;;2.84
31528;BMP280;10206;48.012;10.030;2023-03-01T02:08:13;95088.28;;;3.48
31528;BMP280;10206;48.012;10.030;2023-03-01T02:10:41;95087.03;;;3.49
31528;BMP280;10206;48.012;10.030;2023-03-01T02:13:07;95088.69;;;3.33
31528;BMP280;10206;48.012;10.030;2023-03-01T02:15:36;95090.03;;;3.46
31528;BMP280;10206;48.012;10.030;2023-03-01T02:18:05;95090.75;;;3.22
31528;BMP280;10206;48.012;10.030;2023-03-01T02:20:36;95084.56;;;3.03
31528;BMP280;10206;48.012;10.030;2023-03-01T02:23:04;95078.09;;;2.87
31528;BMP280;10206;48.012;10.030;2023-03-01T02:25:54;95076.06;;;3.23
31528;BMP280;10206;48.012;10.030;2023-03-01T02:28:33;95076.53;;;3.21
31528;BMP280;10206;48.012;10.030;2023-03-01T02:31:01;95075.19;;;3.33
31528;BMP280;10206;48.012;10.030;2023-03-01T02:33:47;95064.91;;;3.56
31528;BMP280;10206;48.012;10.030;2023-03-01T02:36:20;95065.84;;;3.16
31528;BMP280;10206;48.012;10.030;2023-03-01T02:38:48;95069.56;;;3.13
31528;BMP280;10206;48.012;10.030;2023-03-01T02:41:17;95068.13;;;3.06
31528;BMP280;10206;48.012;10.030;2023-03-01T02:43:43;95067.22;;;3.47
31528;BMP280;10206;48.012;10.030;2023-03-01T02:46:24;95061.44;;;3.61
31528;BMP280;10206;48.012;10.030;2023-03-01T02:48:53;95070.72;;;3.17
31528;BMP280;10206;48.012;10.030;2023-03-01T02:54:08;95062.75;;;3.30
31528;BMP280;10206;48.012;10.030;2023-03-01T02:56:36;95062.47;;;3.10
31528;BMP280;10206;48.012;10.030;2023-03-01T02:59:02;95067.22;;;3.47
31528;BMP280;10206;48.012;10.030;2023-03-01T03:01:30;95063.63;;;3.63
31528;BMP280;10206;48.012;10.030;2023-03-01T03:04:16;95065.13;;;2.86
31528;BMP280;10206;48.012;10.030;2023-03-01T03:06:47;95058.91;;;2.66
31528;BMP280;10206;48.012;10.030;2023-03-01T03:09:15;95057.97;;;3.18
31528;BMP280;10206;48.012;10.030;2023-03-01T03:11:42;95058.78;;;3.13
31528;BMP280;10206;48.012;10.030;2023-03-01T03:14:10;95051.47;;;3.32
31528;BMP280;10206;48.012;10.030;2023-03-01T03:16:46;95055.19;;;3.23
31528;BMP280;10206;48.012;10.030;2023-03-01T03:19:13;95055.16;;;3.29
31528;BMP280;10206;48.012;10.030;2023-03-01T03:21:39;95049.22;;;3.12
31528;BMP280;10206;48.012;10.030;2023-03-01T03:24:06;95045.59;;;3.04
31528;BMP280;10206;48.012;10.030;2023-03-01T03:26:32;95048.22;;;2.85
31528;BMP280;10206;48.012;10.030;2023-03-01T03:28:58;95046.47;;;3.42
31528;BMP280;10206;48.012;10.030;2023-03-01T03:31:24;95054.06;;;3.19
31528;BMP280;10206;48.012;10.030;2023-03-01T03:33:50;95056.81;;;2.84
31528;BMP280;10206;48.012;10.030;2023-03-01T03:36:18;95051.97;;;2.77
31528;BMP280;10206;48.012;10.030;2023-03-01T03:38:45;95057.28;;;3.36
31528;BMP280;10206;48.012;10.030;2023-03-01T03:41:12;95056.16;;;3.02
31528;BMP280;10206;48.012;10.030;2023-03-01T03:43:39;95050.16;;;2.60
31528;BMP280;10206;48.012;10.030;2023-03-01T03:46:06;95052.44;;;2.81
31528;BMP280;10206;48.012;10.030;2023-03-01T03:48:39;95049.19;;;3.36
31528;BMP280;10206;48.012;10.030;2023-03-01T03:51:05;95050.06;;;3.25
31528;BMP280;10206;48.012;10.030;2023-03-01T03:53:32;95047.25;;;3.12
31528;BMP280;10206;48.012;10.030;2023-03-01T03:55:58;95033.13;;;3.01
31528;BMP280;10206;48.012;10.030;2023-03-01T03:58:25;95036.81;;;2.73
31528;BMP280;10206;48.012;10.030;2023-03-01T04:00:54;95033.25;;;3.14
31528;BMP280;10206;48.012;10.030;2023-03-01T04:03:22;95034.13;;;2.98
31528;BMP280;10206;48.012;10.030;2023-03-01T04:05:49;95028.72;;;3.03
31528;BMP280;10206;48.012;10.030;2023-03-01T04:08:21;95021.97;;;2.91
31528;BMP280;10206;48.012;10.030;2023-03-01T04:10:50;95032.06;;;2.61
31528;BMP280;10206;48.012;10.030;2023-03-01T04:13:19;95029.94;;;3.02
31528;BMP280;10206;48.012;10.030;2023-03-01T04:15:47;95022.13;;;2.74
31528;BMP280;10206;48.012;10.030;2023-03-01T04:18:15;95016.44;;;3.26
31528;BMP280;10206;48.012;10.030;2023-03-01T04:20:42;95023.72;;;2.89
31528;BMP280;10206;48.012;10.030;2023-03-01T04:23:14;95017.28;;;2.67
31528;BMP280;10206;48.012;10.030;2023-03-01T04:25:54;95015.19;;;2.85
31528;BMP280;10206;48.012;10.030;2023-03-01T04:28:25;95019.25;;;3.21
31528;BMP280;10206;48.012;10.030;2023-03-01T04:30:53;95020.66;;;3.03
31528;BMP280;10206;48.012;10.030;2023-03-01T04:33:20;95023.53;;;2.81
31528;BMP280;10206;48.012;10.030;2023-03-01T04:35:47;95019.66;;;3.01
31528;BMP280;10206;48.012;10.030;2023-03-01T04:38:18;95020.59;;;3.09
31528;BMP280;10206;48.012;10.030;2023-03-01T04:40:44;95016.28;;;2.95
31528;BMP280;10206;48.012;10.030;2023-03-01T04:43:11;95011.06;;;3.26
31528;BMP280;10206;48.012;10.030;2023-03-01T04:45:40;95011.31;;;3.04
31528;BMP280;10206;48.012;10.030;2023-03-01T04:48:06;95018.19;;;3.24
31528;BMP280;10206;48.012;10.030;2023-03-01T04:50:33;95021.41;;;3.22
31528;BMP280;10206;48.012;10.030;2023-03-01T04:52:59;95015.06;;;3.20
31528;BMP280;10206;48.012;10.030;2023-03-01T04:55:26;95009.47;;;3.18
31528;BMP280;10206;48.012;10.030;2023-03-01T04:57:53;95008.66;;;2.99
31528;BMP280;10206;48.012;10.030;2023-03-01T05:00:20;94999.84;;;2.98
31528;BMP280;10206;48.012;10.030;2023-03-01T05:02:59;95007.81;;;2.91
31528;BMP280;10206;48.012;10.030;2023-03-01T05:05:34;95001.16;;;2.92
31528;BMP280;10206;48.012;10.030;2023-03-01T05:08:04;95006.84;;;3.12
31528;BMP280;10206;48.012;10.030;2023-03-01T05:10:32;95003.06;;;3.21
31528;BMP280;10206;48.012;10.030;2023-03-01T05:12:59;95001.44;;;2.88
31528;BMP280;10206;48.012;10.030;2023-03-01T05:15:30;95002.31;;;2.72
31528;BMP280;10206;48.012;10.030;2023-03-01T05:17:58;94989.25;;;2.57
31528;BMP280;10206;48.012;10.030;2023-03-01T05:20:26;94992.44;;;3.04
31528;BMP280;10206;48.012;10.030;2023-03-01T05:22:57;94997.81;;;3.10
31528;BMP280;10206;48.012;10.030;2023-03-01T05:25:24;94993.00;;;2.73
31528;BMP280;10206;48.012;10.030;2023-03-01T05:27:51;94994.25;;;2.96
31528;BMP280;10206;48.012;10.030;2023-03-01T05:30:17;94999.31;;;2.51
31528;BMP280;10206;48.012;10.030;2023-03-01T05:32:48;94992.81;;;2.65
31528;BMP280;10206;48.012;10.030;2023-03-01T05:35:17;94990.72;;;2.83
31528;BMP280;10206;48.012;10.030;2023-03-01T05:37:48;94987.19;;;1.98
31528;BMP280;10206;48.012;10.030;2023-03-01T05:40:17;94987.44;;;2.36
31528;BMP280;10206;48.012;10.030;2023-03-01T05:42:45;94978.66;;;2.89
31528;BMP280;10206;48.012;10.030;2023-03-01T05:45:12;94977.91;;;2.64
31528;BMP280;10206;48.012;10.030;2023-03-01T05:47:40;94984.66;;;2.77
31528;BMP280;10206;48.012;10.030;2023-03-01T05:53:07;94988.81;;;2.48
31528;BMP280;10206;48.012;10.030;2023-03-01T05:55:35;94992.19;;;2.54
31528;BMP280;10206;48.012;10.030;2023-03-01T05:58:04;94985.44;;;2.42
31528;BMP280;10206;48.012;10.030;2023-03-01T06:00:31;94983.97;;;2.41
31528;BMP280;10206;48.012;10.030;2023-03-01T06:02:58;94987.13;;;2.99
31528;BMP280;10206;48.012;10.030;2023-03-01T06:05:24;94986.66;;;2.95
31528;BMP280;10206;48.012;10.030;2023-03-01T06:07:51;94977.41;;;3.14
31528;BMP280;10206;48.012;10.030;2023-03-01T06:10:18;94986.31;;;3.28
31528;BMP280;10206;48.012;10.030;2023-03-01T06:12:45;94976.47;;;3.30
31528;BMP280;10206;48.012;10.030;2023-03-01T06:15:13;94971.94;;;2.47
31528;BMP280;10206;48.012;10.030;2023-03-01T06:17:41;94982.44;;;3.23
31528;BMP280;10206;48.012;10.030;2023-03-01T06:20:20;94983.84;;;3.30
31528;BMP280;10206;48.012;10.030;2023-03-01T06:22:47;94988.28;;;3.27
31528;BMP280;10206;48.012;10.030;2023-03-01T06:25:16;94989.50;;;3.26
31528;BMP280;10206;48.012;10.030;2023-03-01T06:27:43;94987.44;;;3.38
31528;BMP280;10206;48.012;10.030;2023-03-01T06:30:11;94989.41;;;3.56
31528;BMP280;10206;48.012;10.030;2023-03-01T06:32:38;94982.38;;;2.86
31528;BMP280;10206;48.012;10.030;2023-03-01T06:35:08;94987.47;;;3.14
31528;BMP280;10206;48.012;10.030;2023-03-01T06:37:35;94991.72;;;3.47
31528;BMP280;10206;48.012;10.030;2023-03-01T06:40:04;94994.63;;;3.30
31528;BMP280;10206;48.012;10.030;2023-03-01T06:42:38;94992.50;;;3.23
31528;BMP280;10206;48.012;10.030;2023-03-01T06:45:05;94993.09;;;2.92
31528;BMP280;10206;48.012;10.030;2023-03-01T06:47:32;94983.78;;;2.63
31528;BMP280;10206;48.012;10.030;2023-03-01T06:50:02;94985.97;;;2.64
31528;BMP280;10206;48.012;10.030;2023-03-01T06:52:28;94990.94;;;2.60
31528;BMP280;10206;48.012;10.030;2023-03-01T06:54:55;94985.22;;;2.94
31528;BMP280;10206;48.012;10.030;2023-03-01T06:57:21;94987.16;;;2.69
31528;BMP280;10206;48.012;10.030;2023-03-01T06:59:48;94979.59;;;2.67
31528;BMP280;10206;48.012;10.030;2023-03-01T07:02:14;94991.94;;;2.57
31528;BMP280;10206;48.012;10.030;2023-03-01T07:04:41;94996.69;;;2.70
31528;BMP280;10206;48.012;10.030;2023-03-01T07:07:07;94995.78;;;2.62
31528;BMP280;10206;48.012;10.030;2023-03-01T07:09:34;94992.63;;;2.88
31528;BMP280;10206;48.012;10.030;2023-03-01T07:12:00;94982.56;;;2.64
31528;BMP280;10206;48.012;10.030;2023-03-01T07:14:26;94979.22;;;3.06
31528;BMP280;10206;48.012;10.030;2023-03-01T07:16:53;94982.53;;;3.37
31528;BMP280;10206;48.012;10.030;2023-03-01T07:19:20;94971.53;;;2.92
31528;BMP280;10206;48.012;10.030;2023-03-01T07:21:47;94975.53;;;3.04
31528;BMP280;10206;48.012;10.030;2023-03-01T07:24:13;94985.59;;;3.27
31528;BMP280;10206;48.012;10.030;2023-03-01T07:26:39;94985.66;;;2.73
31528;BMP280;10206;48.012;10.030;2023-03-01T07:29:06;94978.63;;;3.13
31528;BMP280;10206;48.012;10.030;2023-03-01T07:31:34;94983.38;;;2.83
31528;BMP280;10206;48.012;10.030;2023-03-01T07:34:00;94985.13;;;2.75
31528;BMP280;10206;48.012;10.030;2023-03-01T07:36:26;94986.66;;;2.95
31528;BMP280;10206;48.012;10.030;2023-03-01T07:38:52;94983.75;;;2.93
31528;BMP280;10206;48.012;10.030;2023-03-01T07:41:19;94982.84;;;2.85
31528;BMP280;10206;48.012;10.030;2023-03-01T07:43:45;94992.47;;;2.80
31528;BMP280;10206;48.012;10.030;2023-03-01T07:46:11;94982.84;;;2.85
31528;BMP280;10206;48.012;10.030;2023-03-01T07:48:37;94978.19;;;2.91
31528;BMP280;10206;48.012;10.030;2023-03-01T07:51:05;94984.03;;;3.13
31528;BMP280;10206;48.012;10.030;2023-03-01T07:53:32;94984.53;;;3.12
31528;BMP280;10206;48.012;10.030;2023-03-01T07:56:17;94975.03;;;2.87
31528;BMP280;10206;48.012;10.030;2023-03-01T07:58:45;94970.63;;;2.84
31528;BMP280;10206;48.012;10.030;2023-03-01T08:01:13;94968.91;;;2.86
31528;BMP280;10206;48.012;10.030;2023-03-01T08:03:40;94971.69;;;2.75
31528;BMP280;10206;48.012;10.030;2023-03-01T08:06:08;94967.09;;;3.37
31528;BMP280;10206;48.012;10.030;2023-03-01T08:08:35;94965.41;;;3.34
31528;BMP280;10206;48.012;10.030;2023-03-01T08:11:03;94966.53;;;3.63
31528;BMP280;10206;48.012;10.030;2023-03-01T08:13:30;94960.47;;;2.95
31528;BMP280;10206;48.012;10.030;2023-03-01T08:16:02;94966.38;;;2.94
31528;BMP280;10206;48.012;10.030;2023-03-01T08:18:28;94968.84;;;3.53
31528;BMP280;10206;48.012;10.030;2023-03-01T08:20:55;94965.88;;;3.38
31528;BMP280;10206;48.012;10.030;2023-03-01T08:23:21;94965.78;;;3.01
31528;BMP280;10206;48.012;10.030;2023-03-01T08:25:47;94964.63;;;2.96
31528;BMP280;10206;48.012;10.030;2023-03-01T08:28:13;94964.84;;;3.41
31528;BMP280;10206;48.012;10.030;2023-03-01T08:30:39;94961.72;;;3.56
31528;BMP280;10206;48.012;10.030;2023-03-01T08:33:05;94958.44;;;3.63
31528;BMP280;10206;48.012;10.030;2023-03-01T08:35:31;94955.84;;;3.14
31528;BMP280;10206;48.012;10.030;2023-03-01T08:37:57;94955.94;;;3.27
31528;BMP280;10206;48.012;10.030;2023-03-01T08:40:23;94957.59;;;2.88
31528;BMP280;10206;48.012;10.030;2023-03-01T08:42:49;94956.59;;;3.15
31528;BMP280;10206;48.012;10.030;2023-03-01T08:45:16;94949.69;;;3.38
31528;BMP280;10206;48.012;10.030;2023-03-01T08:47:44;94956.03;;;3.59
31528;BMP280;10206;48.012;10.030;2023-03-01T08:50:11;94956.38;;;2.89
31528;BMP280;10206;48.012;10.030;2023-03-01T08:52:37;94958.13;;;3.29
31528;BMP280;10206;48.012;10.030;2023-03-01T08:55:03;94953.13;;;3.39
31528;BMP280;10206;48.012;10.030;2023-03-01T08:57:30;94953.91;;;3.33
31528;BMP280;10206;48.012;10.030;2023-03-01T08:59:56;94946.47;;;3.40
31528;BMP280;10206;48.012;10.030;2023-03-01T09:02:22;94951.88;;;3.21
31528;BMP280;10206;48.012;10.030;2023-03-01T09:04:48;94941.97;;;3.29
31528;BMP280;10206;48.012;10.030;2023-03-01T09:07:14;94955.44;;;3.29
31528;BMP280;10206;48.012;10.030;2023-03-01T09:09:40;94942.91;;;3.69
31528;BMP280;10206;48.012;10.030;2023-03-01T09:12:06;94941.69;;;3.51
31528;BMP280;10206;48.012;10.030;2023-03-01T09:14:32;94936.50;;;3.35
31528;BMP280;10206;48.012;10.030;2023-03-01T09:16:58;94943.72;;;3.64
31528;BMP280;10206;48.012;10.030;2023-03-01T09:19:28;94943.97;;;3.98
31528;BMP280;10206;48.012;10.030;2023-03-01T09:21:54;94937.03;;;4.02
31528;BMP280;10206;48.012;10.030;2023-03-01T09:24:23;94938.69;;;3.36
31528;BMP280;10206;48.012;10.030;2023-03-01T09:26:49;94943.94;;;3.66
31528;BMP280;10206;48.012;10.030;2023-03-01T09:29:16;94940.38;;;3.39
31528;BMP280;10206;48.012;10.030;2023-03-01T09:31:43;94938.25;;;3.32
31528;BMP280;10206;48.012;10.030;2023-03-01T09:34:09;94936.13;;;3.25
31528;BMP280;10206;48.012;10.030;2023-03-01T09:36:36;94936.94;;;3.57
31528;BMP280;10206;48.012;10.030;2023-03-01T09:39:03;94934.59;;;2.33
31528;BMP280;10206;48.012;10.030;2023-03-01T09:41:57;94950.88;;;3.61
31528;BMP280;10206;48.012;10.030;2023-03-01T09:47:01;94939.78;;;3.46
31528;BMP280;10206;48.012;10.030;2023-03-01T09:49:30;94942.63;;;3.35
31528;BMP280;10206;48.012;10.030;2023-03-01T09:54:42;94927.69;;;4.03
31528;BMP280;10206;48.012;10.030;2023-03-01T09:58:01;94926.00;;;3.68
31528;BMP280;10206;48.012;10.030;2023-03-01T10:02:59;94931.28;;;3.42
31528;BMP280;10206;48.012;10.030;2023-03-01T10:05:48;94930.66;;;3.12
31528;BMP280;10206;48.012;10.030;2023-03-01T10:10:47;94937.22;;;3.72
31528;BMP280;10206;48.012;10.030;2023-03-01T10:13:19;94939.34;;;3.61
31528;BMP280;10206;48.012;10.030;2023-03-01T10:16:03;94925.56;;;3.46
31528;BMP280;10206;48.012;10.030;2023-03-01T10:18:32;94928.63;;;3.18
31528;BMP280;10206;48.012;10.030;2023-03-01T10:21:09;94925.00;;;3.15
31528;BMP280;10206;48.012;10.030;2023-03-01T10:23:39;94926.53;;;3.67
31528;BMP280;10206;48.012;10.030;2023-03-01T10:26:30;94920.44;;;3.05
31528;BMP280;10206;48.012;10.030;2023-03-01T10:29:09;94921.22;;;3.61
31528;BMP280;10206;48.012;10.030;2023-03-01T10:31:44;94922.13;;;3.82
31528;BMP280;10206;48.012;10.030;2023-03-01T10:34:15;94926.63;;;3.93
31528;BMP280;10206;48.012;10.030;2023-03-01T10:36:43;94924.97;;;3.71
31528;BMP280;10206;48.012;10.030;2023-03-01T10:39:17;94918.84;;;3.89
31528;BMP280;10206;48.012;10.030;2023-03-01T10:42:00;94908.31;;;3.54
31528;BMP280;10206;48.012;10.030;2023-03-01T10:44:39;94916.41;;;4.18
31528;BMP280;10206;48.012;10.030;2023-03-01T10:49:39;94920.00;;;4.39
31528;BMP280;10206;48.012;10.030;2023-03-01T10:52:22;94914.38;;;3.92
31528;BMP280;10206;48.012;10.030;2023-03-01T10:57:32;94919.00;;;4.10
31528;BMP280;10206;48.012;10.030;2023-03-01T11:00:23;94914.09;;;3.45
31528;BMP280;10206;48.012;10.030;2023-03-01T11:05:26;94913.19;;;4.51
31528;BMP280;10206;48.012;10.030;2023-03-01T11:08:02;94902.81;;;4.23
31528;BMP280;10206;48.012;10.030;2023-03-01T11:10:30;94904.47;;;4.71
31528;BMP280;10206;48.012;10.030;2023-03-01T11:13:28;94903.16;;;4.20
31528;BMP280;10206;48.012;10.030;2023-03-01T11:16:34;94886.59;;;3.97
31528;BMP280;10206;48.012;10.030;2023-03-01T11:21:38;94886.69;;;4.05
31528;BMP280;10206;48.012;10.030;2023-03-01T11:24:11;94885.56;;;4.00
31528;BMP280;10206;48.012;10.030;2023-03-01T11:26:41;94888.09;;;4.24
31528;BMP280;10206;48.012;10.030;2023-03-01T11:29:20;94887.09;;;3.96
31528;BMP280;10206;48.012;10.030;2023-03-01T11:31:49;94874.06;;;4.13
31528;BMP280;10206;48.012;10.030;2023-03-01T11:34:19;94870.13;;;4.27
31528;BMP280;10206;48.012;10.030;2023-03-01T11:36:59;94871.16;;;4.24
31528;BMP280;10206;48.012;10.030;2023-03-01T11:39:38;94877.63;;;4.60
31528;BMP280;10206;48.012;10.030;2023-03-01T11:42:20;94863.81;;;4.24
31528;BMP280;10206;48.012;10.030;2023-03-01T11:44:54;94860.38;;;4.24
31528;BMP280;10206;48.012;10.030;2023-03-01T11:47:30;94865.66;;;3.71
31528;BMP280;10206;48.012;10.030;2023-03-01T11:50:09;94865.03;;;3.78
31528;BMP280;10206;48.012;10.030;2023-03-01T11:55:29;94849.44;;;3.90
31528;BMP280;10206;48.012;10.030;2023-03-01T12:03:45;94841.28;;;4.35
31528;BMP280;10206;48.012;10.030;2023-03-01T12:06:34;94840.75;;;4.36
31528;BMP280;10206;48.012;10.030;2023-03-01T12:09:13;94830.97;;;4.20
31528;BMP280;10206;48.012;10.030;2023-03-01T12:12:04;94828.31;;;4.33
31528;BMP280;10206;48.012;10.030;2023-03-01T12:25:35;94818.94;;;5.07
31528;BMP280;10206;48.012;10.030;2023-03-01T12:28:11;94808.91;;;5.29
31528;BMP280;10206;48.012;10.030;2023-03-01T12:30:57;94809.63;;;4.95
31528;BMP280;10206;48.012;10.030;2023-03-01T12:33:30;94814.56;;;4.84
31528;BMP280;10206;48.012;10.030;2023-03-01T12:36:23;94806.69;;;5.06
31528;BMP280;10206;48.012;10.030;2023-03-01T12:39:10;94807.38;;;4.86
31528;BMP280;10206;48.012;10.030;2023-03-01T12:41:46;94799.38;;;5.15
31528;BMP280;10206;48.012;10.030;2023-03-01T12:47:20;94798.53;;;5.40
31528;BMP280;10206;48.012;10.030;2023-03-01T12:49:54;94798.59;;;5.27
31528;BMP280;10206;48.012;10.030;2023-03-01T12:52:46;94787.09;;;5.14
31528;BMP280;10206;48.012;10.030;2023-03-01T12:55:38;94786.91;;;5.12
31528;BMP280;10206;48.012;10.030;2023-03-01T13:00:40;94797.97;;;4.67
31528;BMP280;10206;48.012;10.030;2023-03-01T13:06:08;94804.31;;;5.57
31528;BMP280;10206;48.012;10.030;2023-03-01T13:08:42;94806.75;;;5.14
31528;BMP280;10206;48.012;10.030;2023-03-01T13:11:20;94799.38;;;5.48
31528;BMP280;10206;48.012;10.030;2023-03-01T13:13:47;94802.31;;;5.17
31528;BMP280;10206;48.012;10.030;2023-03-01T13:16:41;94793.47;;;5.16
31528;BMP280;10206;48.012;10.030;2023-03-01T13:19:27;94800.81;;;4.82
31528;BMP280;10206;48.012;10.030;2023-03-01T13:21:55;94792.69;;;5.70
31528;BMP280;10206;48.012;10.030;2023-03-01T13:24:37;94799.66;;;6.14
31528;BMP280;10206;48.012;10.030;2023-03-01T13:29:48;94792.53;;;5.76
31528;BMP280;10206;48.012;10.030;2023-03-01T13:32:26;94806.63;;;6.02
31528;BMP280;10206;48.012;10.030;2023-03-01T13:37:40;94803.91;;;5.53
31528;BMP280;10206;48.012;10.030;2023-03-01T13:42:54;94809.06;;;5.64
31528;BMP280;10206;48.012;10.030;2023-03-01T13:47:49;94807.91;;;5.19
31528;BMP280;10206;48.012;10.030;2023-03-01T13:50:23;94804.47;;;5.18
31528;BMP280;10206;48.012;10.030;2023-03-01T13:52:54;94804.53;;;5.39
31528;BMP280;10206;48.012;10.030;2023-03-01T13:58:30;94811.56;;;4.61
31528;BMP280;10206;48.012;10.030;2023-03-01T14:01:02;94815.72;;;4.62
31528;BMP280;10206;48.012;10.030;2023-03-01T14:03:30;94808.44;;;4.83
31528;BMP280;10206;48.012;10.030;2023-03-01T14:08:28;94819.66;;;4.87
31528;BMP280;10206;48.012;10.030;2023-03-01T14:19:30;94810.66;;;5.05
31528;BMP280;10206;48.012;10.030;2023-03-01T14:24:29;94803.94;;;5.40
31528;BMP280;10206;48.012;10.030;2023-03-01T14:27:00;94791.31;;;4.55
31528;BMP280;10206;48.012;10.030;2023-03-01T14:29:37;94804.03;;;4.93
31528;BMP280;10206;48.012;10.030;2023-03-01T14:32:27;94797.50;;;5.23
31528;BMP280;10206;48.012;10.030;2023-03-01T14:34:54;94772.06;;;5.39
31528;BMP280;10206;48.012;10.030;2023-03-01T14:39:50;94760.47;;;5.80
31528;BMP280;10206;48.012;10.030;2023-03-01T14:42:16;94755.44;;;5.35
31528;BMP280;10206;48.012;10.030;2023-03-01T14:44:46;94754.00;;;5.62
31528;BMP280;10206;48.012;10.030;2023-03-01T14:47:16;94732.25;;;4.51
31528;BMP280;10206;48.012;10.030;2023-03-01T14:49:54;94734.31;;;4.79
31528;BMP280;10206;48.012;10.030;2023-03-01T14:52:25;94742.34;;;4.84
31528;BMP280;10206;48.012;10.030;2023-03-01T14:54:55;94749.41;;;4.74
31528;BMP280;10206;48.012;10.030;2023-03-01T14:57:25;94737.69;;;5.26
31528;BMP280;10206;48.012;10.030;2023-03-01T14:59:54;94736.09;;;4.89
31528;BMP280;10206;48.012;10.030;2023-03-01T15:02:26;94738.97;;;5.74
31528;BMP280;10206;48.012;10.030;2023-03-01T15:04:56;94726.69;;;5.03
31528;BMP280;10206;48.012;10.030;2023-03-01T15:07:29;94724.47;;;5.71
31528;BMP280;10206;48.012;10.030;2023-03-01T15:09:55;94728.19;;;5.33
31528;BMP280;10206;48.012;10.030;2023-03-01T15:14:57;94713.63;;;5.92
31528;BMP280;10206;48.012;10.030;2023-03-01T15:17:32;94710.56;;;5.39
31528;BMP280;10206;48.012;10.030;2023-03-01T15:20:02;94718.75;;;5.26
31528;BMP280;10206;48.012;10.030;2023-03-01T15:22:30;94716.22;;;5.69
31528;BMP280;10206;48.012;10.030;2023-03-01T15:24:56;94712.63;;;5.26
31528;BMP280;10206;48.012;10.030;2023-03-01T15:27:24;94715.75;;;5.86
31528;BMP280;10206;48.012;10.030;2023-03-01T15:30:02;94712.56;;;5.95
31528;BMP280;10206;48.012;10.030;2023-03-01T15:32:30;94714.94;;;5.99
31528;BMP280;10206;48.012;10.030;2023-03-01T15:35:33;94732.91;;;4.98
31528;BMP280;10206;48.012;10.030;2023-03-01T15:37:48;94716.84;;;5.83
31528;BMP280;10206;48.012;10.030;2023-03-01T15:40:33;94715.59;;;5.92
31528;BMP280;10206;48.012;10.030;2023-03-01T15:43:06;94715.84;;;6.01
31528;BMP280;10206;48.012;10.030;2023-03-01T15:45:56;94733.44;;;5.87
31528;BMP280;10206;48.012;10.030;2023-03-01T15:48:23;94721.13;;;5.79
31528;BMP280;10206;48.012;10.030;2023-03-01T15:51:00;94714.47;;;5.59
31528;BMP280;10206;48.012;10.030;2023-03-01T15:53:28;94717.97;;;5.95
31528;BMP280;10206;48.012;10.030;2023-03-01T15:55:54;94714.34;;;6.28
31528;BMP280;10206;48.012;10.030;2023-03-01T15:58:25;94723.78;;;6.35
31528;BMP280;10206;48.012;10.030;2023-03-01T16:00:52;94723.09;;;6.50